sensor_id;sensor_type;location;lat;lon;timestamp;P1;durP1;ratioP1;P2;durP2;ratioP2
21860;SDS011;11095;48.066;8.540;2023-05-28T00:00:09;14.73;;;9.90;;
21860;SDS011;11095;48.066;8.540;2023-05-28T00:02:36;13.95;;;9.38;;
21860;SDS011;11095;48.066;8.540;2023-05-28T00:05:02;12.88;;;8.70;;
21860;SDS011;11095;48.066;8.540;2023-05-28T00:07:31;12.98;;;9.02;;
21860;SDS011;11095;48.066;8.540;2023-05-28T00:09:57;13.02;;;8.85;;
21860;SDS011;11095;48.066;8.540;2023-05-28T00:12:23;11.13;;;8.40;;
21860;SDS011;11095;48.066;8.540;2023-05-28T00:14:48;12.73;;;8.25;;
21860;SDS011;11095;48.066;8.540;2023-05-28T00:17:15;11.70;;;8.07;;
21860;SDS011;11095;48.066;8.540;2023-05-28T00:19:42;15.07;;;7.43;;
21860;SDS011;11095;48.066;8.540;2023-05-28T00:22:08;11.15;;;7.28;;
21860;SDS011;11095;48.066;8.540;2023-05-28T00:24:34;11.57;;;7.45;;
21860;SDS011;11095;48.066;8.540;2023-05-28T00:27:00;10.68;;;7.13;;
21860;SDS011;11095;48.066;8.540;2023-05-28T00:29:26;9.63;;;7.05;;
21860;SDS011;11095;48.066;8.540;2023-05-28T00:31:52;11.95;;;7.55;;
21860;SDS011;11095;48.066;8.540;2023-05-28T00:34:23;9.50;;;7.17;;
21860;SDS011;11095;48.066;8.540;2023-05-28T00:36:50;10.73;;;6.65;;
21860;SDS011;11095;48.066;8.540;2023-05-28T00:39:16;10.25;;;6.88;;
21860;SDS011;11095;48.066;8.540;2023-05-28T00:41:43;9.70;;;6.80;;
21860;SDS011;11095;48.066;8.540;2023-05-28T00:44:09;11.05;;;6.88;;
21860;SDS011;11095;48.066;8.540;2023-05-28T00:46:36;10.82;;;6.63;;
21860;SDS011;11095;48.066;8.540;2023-05-28T00:49:05;8.80;;;6.63;;
21860;SDS011;11095;48.066;8.540;2023-05-28T00:51:30;10.85;;;6.65;;
21860;SDS011;11095;48.066;8.540;2023-05-28T00:53:58;9.25;;;6.65;;
21860;SDS011;11095;48.066;8.540;2023-05-28T00:56:24;12.70;;;6.90;;
21860;SDS011;11095;48.066;8.540;2023-05-28T00:58:49;9.55;;;6.53;;
21860;SDS011;11095;48.066;8.540;2023-05-28T01:01:16;10.50;;;6.38;;
21860;SDS011;11095;48.066;8.540;2023-05-28T01:03:42;10.10;;;6.07;;
21860;SDS011;11095;48.066;8.540;2023-05-28T01:06:12;10.80;;;6.50;;
21860;SDS011;11095;48.066;8.540;2023-05-28T01:08:39;11.57;;;6.50;;
21860;SDS011;11095;48.066;8.540;2023-05-28T01:11:10;10.60;;;6.47;;
21860;SDS011;11095;48.066;8.540;2023-05-28T01:13:39;10.15;;;6.88;;
21860;SDS011;11095;48.066;8.540;2023-05-28T01:16:06;9.45;;;6.53;;
21860;SDS011;11095;48.066;8.540;2023-05-28T01:18:32;10.25;;;6.80;;
21860;SDS011;11095;48.066;8.540;2023-05-28T01:21:00;10.52;;;6.85;;
21860;SDS011;11095;48.066;8.540;2023-05-28T01:25:54;9.60;;;6.35;;
21860;SDS011;11095;48.066;8.540;2023-05-28T01:28:20;10.80;;;6.75;;
21860;SDS011;11095;48.066;8.540;2023-05-28T01:30:49;9.82;;;6.28;;
21860;SDS011;11095;48.066;8.540;2023-05-28T01:33:15;9.93;;;6.35;;
21860;SDS011;11095;48.066;8.540;2023-05-28T01:35:41;10.77;;;6.88;;
21860;SDS011;11095;48.066;8.540;2023-05-28T01:38:08;10.13;;;6.70;;
21860;SDS011;11095;48.066;8.540;2023-05-28T01:40:38;10.25;;;6.38;;
21860;SDS011;11095;48.066;8.540;2023-05-28T01:43:06;10.75;;;6.53;;
21860;SDS011;11095;48.066;8.540;2023-05-28T01:45:32;10.50;;;6.90;;
21860;SDS011;11095;48.066;8.540;2023-05-28T01:47:58;11.45;;;6.82;;
21860;SDS011;11095;48.066;8.540;2023-05-28T01:50:24;9.65;;;6.70;;
21860;SDS011;11095;48.066;8.540;2023-05-28T01:52:50;10.10;;;6.82;;
21860;SDS011;11095;48.066;8.540;2023-05-28T01:55:16;9.65;;;6.40;;
21860;SDS011;11095;48.066;8.540;2023-05-28T01:57:42;11.80;;;7.10;;
21860;SDS011;11095;48.066;8.540;2023-05-28T02:00:08;10.27;;;6.55;;
21860;SDS011;11095;48.066;8.540;2023-05-28T02:02:35;8.48;;;6.25;;
21860;SDS011;11095;48.066;8.540;2023-05-28T02:05:01;8.82;;;6.28;;
21860;SDS011;11095;48.066;8.540;2023-05-28T02:07:27;9.95;;;6.80;;
21860;SDS011;11095;48.066;8.540;2023-05-28T02:09:52;10.13;;;6.45;;
21860;SDS011;11095;48.066;8.540;2023-05-28T02:12:18;10.50;;;6.85;;
21860;SDS011;11095;48.066;8.540;2023-05-28T02:14:44;10.23;;;6.93;;
21860;SDS011;11095;48.066;8.540;2023-05-28T02:17:10;9.32;;;6.72;;
21860;SDS011;11095;48.066;8.540;2023-05-28T02:19:35;10.20;;;6.90;;
21860;SDS011;11095;48.066;8.540;2023-05-28T02:22:01;9.10;;;6.55;;
21860;SDS011;11095;48.066;8.540;2023-05-28T02:24:36;10.35;;;6.80;;
21860;SDS011;11095;48.066;8.540;2023-05-28T02:27:02;9.80;;;6.50;;
21860;SDS011;11095;48.066;8.540;2023-05-28T02:29:28;12.10;;;7.00;;
21860;SDS011;11095;48.066;8.540;2023-05-28T02:31:54;11.88;;;7.32;;
21860;SDS011;11095;48.066;8.540;2023-05-28T02:34:20;12.55;;;7.72;;
21860;SDS011;11095;48.066;8.540;2023-05-28T02:36:45;11.23;;;7.15;;
21860;SDS011;11095;48.066;8.540;2023-05-28T02:39:11;10.35;;;6.97;;
21860;SDS011;11095;48.066;8.540;2023-05-28T02:41:37;11.18;;;7.40;;
21860;SDS011;11095;48.066;8.540;2023-05-28T02:44:02;11.15;;;7.70;;
21860;SDS011;11095;48.066;8.540;2023-05-28T02:46:28;11.55;;;7.50;;
21860;SDS011;11095;48.066;8.540;2023-05-28T02:48:53;11.35;;;7.65;;
21860;SDS011;11095;48.066;8.540;2023-05-28T02:51:19;12.48;;;7.57;;
21860;SDS011;11095;48.066;8.540;2023-05-28T02:53:45;11.13;;;7.63;;
21860;SDS011;11095;48.066;8.540;2023-05-28T02:56:10;10.43;;;7.13;;
21860;SDS011;11095;48.066;8.540;2023-05-28T02:58:36;12.18;;;7.78;;
21860;SDS011;11095;48.066;8.540;2023-05-28T03:01:02;12.05;;;7.40;;
21860;SDS011;11095;48.066;8.540;2023-05-28T03:03:28;10.88;;;7.22;;
21860;SDS011;11095;48.066;8.540;2023-05-28T03:05:54;11.02;;;7.70;;
21860;SDS011;11095;48.066;8.540;2023-05-28T03:08:20;9.98;;;7.20;;
21860;SDS011;11095;48.066;8.540;2023-05-28T03:10:45;11.68;;;7.68;;
21860;SDS011;11095;48.066;8.540;2023-05-28T03:13:11;11.55;;;7.60;;
21860;SDS011;11095;48.066;8.540;2023-05-28T03:15:37;13.30;;;7.75;;
21860;SDS011;11095;48.066;8.540;2023-05-28T03:18:02;10.40;;;6.95;;
21860;SDS011;11095;48.066;8.540;2023-05-28T03:20:31;11.65;;;7.22;;
21860;SDS011;11095;48.066;8.540;2023-05-28T03:22:57;9.40;;;6.65;;
21860;SDS011;11095;48.066;8.540;2023-05-28T03:25:23;10.50;;;7.55;;
21860;SDS011;11095;48.066;8.540;2023-05-28T03:27:50;11.63;;;7.85;;
21860;SDS011;11095;48.066;8.540;2023-05-28T03:30:17;11.27;;;7.45;;
21860;SDS011;11095;48.066;8.540;2023-05-28T03:32:42;11.02;;;7.18;;
21860;SDS011;11095;48.066;8.540;2023-05-28T03:35:08;12.43;;;7.30;;
21860;SDS011;11095;48.066;8.540;2023-05-28T03:37:34;10.57;;;7.30;;
21860;SDS011;11095;48.066;8.540;2023-05-28T03:39:59;11.57;;;7.75;;
21860;SDS011;11095;48.066;8.540;2023-05-28T03:42:25;10.95;;;7.53;;
21860;SDS011;11095;48.066;8.540;2023-05-28T03:44:51;11.60;;;7.65;;
21860;SDS011;11095;48.066;8.540;2023-05-28T03:47:17;11.18;;;7.45;;
21860;SDS011;11095;48.066;8.540;2023-05-28T03:49:42;9.73;;;7.22;;
21860;SDS011;11095;48.066;8.540;2023-05-28T03:52:08;10.75;;;7.68;;
21860;SDS011;11095;48.066;8.540;2023-05-28T03:54:35;9.13;;;7.45;;
21860;SDS011;11095;48.066;8.540;2023-05-28T03:57:01;9.77;;;7.10;;
21860;SDS011;11095;48.066;8.540;2023-05-28T03:59:27;8.07;;;6.35;;
21860;SDS011;11095;48.066;8.540;2023-05-28T04:01:52;7.68;;;5.85;;
21860;SDS011;11095;48.066;8.540;2023-05-28T04:04:18;9.80;;;6.47;;
21860;SDS011;11095;48.066;8.540;2023-05-28T04:06:44;7.35;;;5.93;;
21860;SDS011;11095;48.066;8.540;2023-05-28T04:09:09;8.20;;;5.82;;
21860;SDS011;11095;48.066;8.540;2023-05-28T04:11:35;7.70;;;6.13;;
21860;SDS011;11095;48.066;8.540;2023-05-28T04:14:02;8.55;;;6.03;;
21860;SDS011;11095;48.066;8.540;2023-05-28T04:16:28;7.20;;;5.57;;
21860;SDS011;11095;48.066;8.540;2023-05-28T04:18:54;7.05;;;5.30;;
21860;SDS011;11095;48.066;8.540;2023-05-28T04:21:20;7.72;;;5.50;;
21860;SDS011;11095;48.066;8.540;2023-05-28T04:23:46;7.30;;;5.35;;
21860;SDS011;11095;48.066;8.540;2023-05-28T04:26:12;8.25;;;6.05;;
21860;SDS011;11095;48.066;8.540;2023-05-28T04:28:39;8.43;;;5.40;;
21860;SDS011;11095;48.066;8.540;2023-05-28T04:31:05;7.75;;;5.45;;
21860;SDS011;11095;48.066;8.540;2023-05-28T04:33:31;8.68;;;5.40;;
21860;SDS011;11095;48.066;8.540;2023-05-28T04:35:57;6.80;;;5.10;;
21860;SDS011;11095;48.066;8.540;2023-05-28T04:38:24;6.57;;;5.05;;
21860;SDS011;11095;48.066;8.540;2023-05-28T04:40:50;7.10;;;4.95;;
21860;SDS011;11095;48.066;8.540;2023-05-28T04:43:18;7.95;;;4.97;;
21860;SDS011;11095;48.066;8.540;2023-05-28T04:45:43;7.68;;;5.75;;
21860;SDS011;11095;48.066;8.540;2023-05-28T04:48:09;8.30;;;5.30;;
21860;SDS011;11095;48.066;8.540;2023-05-28T04:50:35;6.00;;;5.00;;
21860;SDS011;11095;48.066;8.540;2023-05-28T04:53:01;6.55;;;5.00;;
21860;SDS011;11095;48.066;8.540;2023-05-28T04:55:27;8.82;;;5.50;;
21860;SDS011;11095;48.066;8.540;2023-05-28T04:57:53;6.40;;;4.70;;
21860;SDS011;11095;48.066;8.540;2023-05-28T05:00:18;6.03;;;4.70;;
21860;SDS011;11095;48.066;8.540;2023-05-28T05:02:45;7.18;;;5.20;;
21860;SDS011;11095;48.066;8.540;2023-05-28T05:05:11;6.18;;;4.85;;
21860;SDS011;11095;48.066;8.540;2023-05-28T05:07:37;8.82;;;5.25;;
21860;SDS011;11095;48.066;8.540;2023-05-28T05:10:07;6.38;;;5.00;;
21860;SDS011;11095;48.066;8.540;2023-05-28T05:12:34;5.85;;;4.70;;
21860;SDS011;11095;48.066;8.540;2023-05-28T05:15:00;7.00;;;4.82;;
21860;SDS011;11095;48.066;8.540;2023-05-28T05:17:25;9.65;;;4.90;;
21860;SDS011;11095;48.066;8.540;2023-05-28T05:19:51;6.70;;;4.97;;
21860;SDS011;11095;48.066;8.540;2023-05-28T05:22:17;6.40;;;5.03;;
21860;SDS011;11095;48.066;8.540;2023-05-28T05:24:43;6.75;;;5.00;;
21860;SDS011;11095;48.066;8.540;2023-05-28T05:27:11;7.53;;;5.03;;
21860;SDS011;11095;48.066;8.540;2023-05-28T05:29:36;7.63;;;5.03;;
21860;SDS011;11095;48.066;8.540;2023-05-28T05:32:02;6.22;;;4.90;;
21860;SDS011;11095;48.066;8.540;2023-05-28T05:34:28;6.90;;;5.10;;
21860;SDS011;11095;48.066;8.540;2023-05-28T05:36:53;7.00;;;5.35;;
21860;SDS011;11095;48.066;8.540;2023-05-28T05:39:19;6.13;;;4.30;;
21860;SDS011;11095;48.066;8.540;2023-05-28T05:41:45;6.15;;;4.65;;
21860;SDS011;11095;48.066;8.540;2023-05-28T05:44:10;6.45;;;4.85;;
21860;SDS011;11095;48.066;8.540;2023-05-28T05:46:36;7.07;;;4.88;;
21860;SDS011;11095;48.066;8.540;2023-05-28T05:49:02;6.65;;;4.72;;
21860;SDS011;11095;48.066;8.540;2023-05-28T05:51:27;8.07;;;4.88;;
21860;SDS011;11095;48.066;8.540;2023-05-28T05:53:53;5.95;;;4.25;;
21860;SDS011;11095;48.066;8.540;2023-05-28T05:56:18;5.13;;;3.80;;
21860;SDS011;11095;48.066;8.540;2023-05-28T05:58:44;6.07;;;4.57;;
21860;SDS011;11095;48.066;8.540;2023-05-28T06:01:10;6.63;;;4.60;;
21860;SDS011;11095;48.066;8.540;2023-05-28T06:03:36;6.50;;;4.03;;
21860;SDS011;11095;48.066;8.540;2023-05-28T06:06:01;7.22;;;4.20;;
21860;SDS011;11095;48.066;8.540;2023-05-28T06:08:27;7.18;;;4.70;;
21860;SDS011;11095;48.066;8.540;2023-05-28T06:10:53;7.05;;;4.80;;
21860;SDS011;11095;48.066;8.540;2023-05-28T06:13:19;6.07;;;3.90;;
21860;SDS011;11095;48.066;8.540;2023-05-28T06:15:45;6.53;;;3.92;;
21860;SDS011;11095;48.066;8.540;2023-05-28T06:18:11;6.63;;;4.07;;
21860;SDS011;11095;48.066;8.540;2023-05-28T06:20:37;7.40;;;4.13;;
21860;SDS011;11095;48.066;8.540;2023-05-28T06:23:03;7.25;;;4.05;;
21860;SDS011;11095;48.066;8.540;2023-05-28T06:25:28;7.90;;;4.20;;
21860;SDS011;11095;48.066;8.540;2023-05-28T06:27:54;6.45;;;3.97;;
21860;SDS011;11095;48.066;8.540;2023-05-28T06:30:20;7.57;;;4.00;;
21860;SDS011;11095;48.066;8.540;2023-05-28T06:32:46;5.68;;;3.80;;
21860;SDS011;11095;48.066;8.540;2023-05-28T06:35:12;6.93;;;3.80;;
21860;SDS011;11095;48.066;8.540;2023-05-28T06:37:38;8.35;;;4.00;;
21860;SDS011;11095;48.066;8.540;2023-05-28T06:40:05;6.50;;;4.00;;
21860;SDS011;11095;48.066;8.540;2023-05-28T06:42:31;6.97;;;4.03;;
21860;SDS011;11095;48.066;8.540;2023-05-28T06:44:57;7.95;;;3.83;;
21860;SDS011;11095;48.066;8.540;2023-05-28T06:47:24;6.30;;;3.17;;
21860;SDS011;11095;48.066;8.540;2023-05-28T06:49:50;5.88;;;3.78;;
21860;SDS011;11095;48.066;8.540;2023-05-28T06:52:16;5.95;;;4.00;;
21860;SDS011;11095;48.066;8.540;2023-05-28T06:54:44;7.22;;;3.50;;
21860;SDS011;11095;48.066;8.540;2023-05-28T06:57:09;6.55;;;3.60;;
21860;SDS011;11095;48.066;8.540;2023-05-28T06:59:35;6.88;;;3.80;;
21860;SDS011;11095;48.066;8.540;2023-05-28T07:02:01;5.82;;;3.72;;
21860;SDS011;11095;48.066;8.540;2023-05-28T07:04:26;5.45;;;3.55;;
21860;SDS011;11095;48.066;8.540;2023-05-28T07:06:52;7.03;;;3.95;;
21860;SDS011;11095;48.066;8.540;2023-05-28T07:09:18;5.82;;;3.28;;
21860;SDS011;11095;48.066;8.540;2023-05-28T07:11:44;8.75;;;3.85;;
21860;SDS011;11095;48.066;8.540;2023-05-28T07:14:10;9.27;;;4.20;;
21860;SDS011;11095;48.066;8.540;2023-05-28T07:16:36;6.97;;;4.20;;
21860;SDS011;11095;48.066;8.540;2023-05-28T07:19:01;6.45;;;3.80;;
21860;SDS011;11095;48.066;8.540;2023-05-28T07:21:27;7.47;;;3.70;;
21860;SDS011;11095;48.066;8.540;2023-05-28T07:23:52;5.10;;;3.20;;
21860;SDS011;11095;48.066;8.540;2023-05-28T07:26:18;7.97;;;4.13;;
21860;SDS011;11095;48.066;8.540;2023-05-28T07:28:44;7.93;;;4.28;;
21860;SDS011;11095;48.066;8.540;2023-05-28T07:31:09;5.75;;;3.67;;
21860;SDS011;11095;48.066;8.540;2023-05-28T07:33:35;5.80;;;3.40;;
21860;SDS011;11095;48.066;8.540;2023-05-28T07:36:01;7.15;;;4.13;;
21860;SDS011;11095;48.066;8.540;2023-05-28T07:38:26;9.32;;;4.32;;
21860;SDS011;11095;48.066;8.540;2023-05-28T07:40:52;7.32;;;3.72;;
21860;SDS011;11095;48.066;8.540;2023-05-28T07:43:18;7.28;;;4.30;;
21860;SDS011;11095;48.066;8.540;2023-05-28T07:45:43;7.50;;;4.38;;
21860;SDS011;11095;48.066;8.540;2023-05-28T07:48:09;8.80;;;4.05;;
21860;SDS011;11095;48.066;8.540;2023-05-28T07:50:35;8.23;;;3.90;;
21860;SDS011;11095;48.066;8.540;2023-05-28T07:53:00;8.52;;;4.35;;
21860;SDS011;11095;48.066;8.540;2023-05-28T07:55:29;8.23;;;4.50;;
21860;SDS011;11095;48.066;8.540;2023-05-28T07:57:54;7.82;;;4.45;;
21860;SDS011;11095;48.066;8.540;2023-05-28T08:00:20;7.50;;;3.95;;
21860;SDS011;11095;48.066;8.540;2023-05-28T08:02:45;6.97;;;3.90;;
21860;SDS011;11095;48.066;8.540;2023-05-28T08:05:12;6.47;;;3.67;;
21860;SDS011;11095;48.066;8.540;2023-05-28T08:07:39;6.82;;;3.40;;
21860;SDS011;11095;48.066;8.540;2023-05-28T08:10:05;7.32;;;4.00;;
21860;SDS011;11095;48.066;8.540;2023-05-28T08:12:31;7.13;;;3.75;;
21860;SDS011;11095;48.066;8.540;2023-05-28T08:14:57;6.55;;;3.47;;
21860;SDS011;11095;48.066;8.540;2023-05-28T08:17:22;9.80;;;4.00;;
21860;SDS011;11095;48.066;8.540;2023-05-28T08:19:48;7.45;;;3.65;;
21860;SDS011;11095;48.066;8.540;2023-05-28T08:22:14;6.50;;;3.55;;
21860;SDS011;11095;48.066;8.540;2023-05-28T08:24:40;7.63;;;3.40;;
21860;SDS011;11095;48.066;8.540;2023-05-28T08:27:06;8.05;;;3.63;;
21860;SDS011;11095;48.066;8.540;2023-05-28T08:29:32;6.32;;;3.40;;
21860;SDS011;11095;48.066;8.540;2023-05-28T08:31:58;7.50;;;3.50;;
21860;SDS011;11095;48.066;8.540;2023-05-28T08:34:24;6.75;;;3.40;;
21860;SDS011;11095;48.066;8.540;2023-05-28T08:36:51;5.70;;;3.30;;
21860;SDS011;11095;48.066;8.540;2023-05-28T08:39:17;8.10;;;3.35;;
21860;SDS011;11095;48.066;8.540;2023-05-28T08:41:43;9.15;;;3.40;;
21860;SDS011;11095;48.066;8.540;2023-05-28T08:44:09;6.65;;;3.45;;
21860;SDS011;11095;48.066;8.540;2023-05-28T08:46:35;5.78;;;3.30;;
21860;SDS011;11095;48.066;8.540;2023-05-28T08:49:02;6.72;;;3.13;;
21860;SDS011;11095;48.066;8.540;2023-05-28T08:51:29;6.10;;;3.10;;
21860;SDS011;11095;48.066;8.540;2023-05-28T08:56:24;7.15;;;3.45;;
21860;SDS011;11095;48.066;8.540;2023-05-28T08:58:51;7.93;;;3.35;;
21860;SDS011;11095;48.066;8.540;2023-05-28T09:01:17;6.35;;;3.20;;
21860;SDS011;11095;48.066;8.540;2023-05-28T09:03:43;6.78;;;3.10;;
21860;SDS011;11095;48.066;8.540;2023-05-28T09:06:09;7.07;;;3.25;;
21860;SDS011;11095;48.066;8.540;2023-05-28T09:08:35;8.27;;;3.50;;
21860;SDS011;11095;48.066;8.540;2023-05-28T09:11:11;5.78;;;3.10;;
21860;SDS011;11095;48.066;8.540;2023-05-28T09:13:44;6.15;;;3.22;;
21860;SDS011;11095;48.066;8.540;2023-05-28T09:16:11;4.40;;;2.97;;
21860;SDS011;11095;48.066;8.540;2023-05-28T09:18:37;5.57;;;2.95;;
21860;SDS011;11095;48.066;8.540;2023-05-28T09:21:07;5.15;;;3.03;;
21860;SDS011;11095;48.066;8.540;2023-05-28T09:23:36;5.20;;;3.10;;
21860;SDS011;11095;48.066;8.540;2023-05-28T09:26:03;7.13;;;3.25;;
21860;SDS011;11095;48.066;8.540;2023-05-28T09:28:34;5.60;;;3.13;;
21860;SDS011;11095;48.066;8.540;2023-05-28T09:31:03;6.28;;;2.95;;
21860;SDS011;11095;48.066;8.540;2023-05-28T09:33:30;6.45;;;3.28;;
21860;SDS011;11095;48.066;8.540;2023-05-28T09:36:01;7.28;;;3.08;;
21860;SDS011;11095;48.066;8.540;2023-05-28T09:38:28;5.22;;;3.03;;
21860;SDS011;11095;48.066;8.540;2023-05-28T09:41:27;5.35;;;3.10;;
21860;SDS011;11095;48.066;8.540;2023-05-28T09:44:03;7.25;;;2.97;;
21860;SDS011;11095;48.066;8.540;2023-05-28T09:46:34;4.60;;;2.80;;
21860;SDS011;11095;48.066;8.540;2023-05-28T09:49:00;5.85;;;2.88;;
21860;SDS011;11095;48.066;8.540;2023-05-28T09:51:28;6.28;;;2.67;;
21860;SDS011;11095;48.066;8.540;2023-05-28T09:53:58;6.38;;;3.10;;
21860;SDS011;11095;48.066;8.540;2023-05-28T09:56:31;5.75;;;3.00;;
21860;SDS011;11095;48.066;8.540;2023-05-28T09:58:59;6.05;;;2.90;;
21860;SDS011;11095;48.066;8.540;2023-05-28T10:01:31;5.93;;;2.60;;
21860;SDS011;11095;48.066;8.540;2023-05-28T10:04:02;5.13;;;2.50;;
21860;SDS011;11095;48.066;8.540;2023-05-28T10:06:32;5.20;;;2.70;;
21860;SDS011;11095;48.066;8.540;2023-05-28T10:09:00;3.53;;;2.60;;
21860;SDS011;11095;48.066;8.540;2023-05-28T10:11:29;5.00;;;2.70;;
21860;SDS011;11095;48.066;8.540;2023-05-28T10:13:57;5.68;;;2.75;;
21860;SDS011;11095;48.066;8.540;2023-05-28T10:16:23;4.70;;;3.15;;
21860;SDS011;11095;48.066;8.540;2023-05-28T10:18:50;5.95;;;3.10;;
21860;SDS011;11095;48.066;8.540;2023-05-28T10:21:16;7.22;;;3.40;;
21860;SDS011;11095;48.066;8.540;2023-05-28T10:23:44;5.53;;;3.15;;
21860;SDS011;11095;48.066;8.540;2023-05-28T10:26:11;4.78;;;2.97;;
21860;SDS011;11095;48.066;8.540;2023-05-28T10:28:38;6.68;;;2.67;;
21860;SDS011;11095;48.066;8.540;2023-05-28T10:31:05;6.18;;;3.10;;
21860;SDS011;11095;48.066;8.540;2023-05-28T10:33:32;6.57;;;2.95;;
21860;SDS011;11095;48.066;8.540;2023-05-28T10:36:02;4.50;;;2.47;;
21860;SDS011;11095;48.066;8.540;2023-05-28T10:38:28;4.82;;;2.60;;
21860;SDS011;11095;48.066;8.540;2023-05-28T10:41:01;5.38;;;3.03;;
21860;SDS011;11095;48.066;8.540;2023-05-28T10:43:43;7.20;;;3.00;;
21860;SDS011;11095;48.066;8.540;2023-05-28T10:51:42;6.38;;;3.00;;
21860;SDS011;11095;48.066;8.540;2023-05-28T10:57:14;4.28;;;2.75;;
21860;SDS011;11095;48.066;8.540;2023-05-28T10:59:51;6.38;;;2.70;;
21860;SDS011;11095;48.066;8.540;2023-05-28T11:02:19;6.05;;;2.80;;
21860;SDS011;11095;48.066;8.540;2023-05-28T11:04:51;7.15;;;2.85;;
21860;SDS011;11095;48.066;8.540;2023-05-28T11:07:18;5.55;;;2.80;;
21860;SDS011;11095;48.066;8.540;2023-05-28T11:09:47;5.80;;;2.87;;
21860;SDS011;11095;48.066;8.540;2023-05-28T11:12:14;5.10;;;2.88;;
21860;SDS011;11095;48.066;8.540;2023-05-28T11:14:40;5.07;;;2.80;;
21860;SDS011;11095;48.066;8.540;2023-05-28T11:17:14;4.32;;;2.63;;
21860;SDS011;11095;48.066;8.540;2023-05-28T11:19:44;6.07;;;2.90;;
21860;SDS011;11095;48.066;8.540;2023-05-28T11:22:14;6.15;;;3.10;;
21860;SDS011;11095;48.066;8.540;2023-05-28T11:24:53;5.95;;;2.63;;
21860;SDS011;11095;48.066;8.540;2023-05-28T11:27:21;4.60;;;2.70;;
21860;SDS011;11095;48.066;8.540;2023-05-28T11:29:52;5.55;;;2.95;;
21860;SDS011;11095;48.066;8.540;2023-05-28T11:32:19;6.95;;;2.95;;
21860;SDS011;11095;48.066;8.540;2023-05-28T11:34:48;5.90;;;2.95;;
21860;SDS011;11095;48.066;8.540;2023-05-28T11:37:15;7.05;;;3.10;;
21860;SDS011;11095;48.066;8.540;2023-05-28T11:39:49;5.57;;;2.85;;
21860;SDS011;11095;48.066;8.540;2023-05-28T11:42:19;5.13;;;2.63;;
21860;SDS011;11095;48.066;8.540;2023-05-28T11:44:46;5.63;;;3.00;;
21860;SDS011;11095;48.066;8.540;2023-05-28T11:47:12;5.57;;;3.00;;
21860;SDS011;11095;48.066;8.540;2023-05-28T11:49:41;4.80;;;2.75;;
21860;SDS011;11095;48.066;8.540;2023-05-28T11:52:11;4.88;;;3.03;;
21860;SDS011;11095;48.066;8.540;2023-05-28T11:54:38;5.43;;;3.00;;
21860;SDS011;11095;48.066;8.540;2023-05-28T11:57:05;5.80;;;2.92;;
21860;SDS011;11095;48.066;8.540;2023-05-28T11:59:31;4.22;;;2.97;;
21860;SDS011;11095;48.066;8.540;2023-05-28T12:02:13;4.68;;;3.20;;
21860;SDS011;11095;48.066;8.540;2023-05-28T12:07:43;5.90;;;2.65;;
21860;SDS011;11095;48.066;8.540;2023-05-28T12:10:12;5.70;;;3.20;;
21860;SDS011;11095;48.066;8.540;2023-05-28T12:12:41;5.05;;;2.88;;
21860;SDS011;11095;48.066;8.540;2023-05-28T12:15:26;4.43;;;2.80;;
21860;SDS011;11095;48.066;8.540;2023-05-28T12:17:56;6.15;;;2.95;;
21860;SDS011;11095;48.066;8.540;2023-05-28T12:23:08;4.70;;;3.00;;
21860;SDS011;11095;48.066;8.540;2023-05-28T12:28:14;4.68;;;3.00;;
21860;SDS011;11095;48.066;8.540;2023-05-28T12:30:42;5.15;;;3.00;;
21860;SDS011;11095;48.066;8.540;2023-05-28T12:33:10;5.30;;;2.92;;
21860;SDS011;11095;48.066;8.540;2023-05-28T12:35:36;6.57;;;3.03;;
21860;SDS011;11095;48.066;8.540;2023-05-28T12:38:01;6.13;;;3.17;;
21860;SDS011;11095;48.066;8.540;2023-05-28T12:40:28;5.68;;;3.10;;
21860;SDS011;11095;48.066;8.540;2023-05-28T12:42:54;7.82;;;3.10;;
21860;SDS011;11095;48.066;8.540;2023-05-28T12:45:20;5.05;;;3.00;;
21860;SDS011;11095;48.066;8.540;2023-05-28T12:47:45;10.48;;;3.47;;
21860;SDS011;11095;48.066;8.540;2023-05-28T12:50:11;6.30;;;2.95;;
21860;SDS011;11095;48.066;8.540;2023-05-28T12:52:36;7.68;;;3.22;;
21860;SDS011;11095;48.066;8.540;2023-05-28T12:55:02;6.10;;;3.45;;
21860;SDS011;11095;48.066;8.540;2023-05-28T12:57:28;5.85;;;3.05;;
21860;SDS011;11095;48.066;8.540;2023-05-28T12:59:56;6.22;;;3.35;;
21860;SDS011;11095;48.066;8.540;2023-05-28T13:02:22;8.95;;;3.50;;
21860;SDS011;11095;48.066;8.540;2023-05-28T13:04:48;7.07;;;3.40;;
21860;SDS011;11095;48.066;8.540;2023-05-28T13:07:13;5.15;;;3.40;;
21860;SDS011;11095;48.066;8.540;2023-05-28T13:09:39;5.93;;;3.22;;
21860;SDS011;11095;48.066;8.540;2023-05-28T13:12:05;6.47;;;3.22;;
21860;SDS011;11095;48.066;8.540;2023-05-28T13:14:31;4.78;;;3.10;;
21860;SDS011;11095;48.066;8.540;2023-05-28T13:16:57;5.45;;;3.10;;
21860;SDS011;11095;48.066;8.540;2023-05-28T13:19:25;5.93;;;3.55;;
21860;SDS011;11095;48.066;8.540;2023-05-28T13:21:52;6.57;;;3.50;;
21860;SDS011;11095;48.066;8.540;2023-05-28T13:24:18;6.13;;;3.50;;
21860;SDS011;11095;48.066;8.540;2023-05-28T13:26:44;6.03;;;3.45;;
21860;SDS011;11095;48.066;8.540;2023-05-28T13:29:09;6.43;;;3.47;;
21860;SDS011;11095;48.066;8.540;2023-05-28T13:31:35;6.22;;;3.38;;
21860;SDS011;11095;48.066;8.540;2023-05-28T13:34:01;7.05;;;3.35;;
21860;SDS011;11095;48.066;8.540;2023-05-28T13:36:28;6.97;;;3.40;;
21860;SDS011;11095;48.066;8.540;2023-05-28T13:38:54;7.60;;;3.40;;
21860;SDS011;11095;48.066;8.540;2023-05-28T13:41:21;6.78;;;3.60;;
21860;SDS011;11095;48.066;8.540;2023-05-28T13:43:48;4.95;;;3.08;;
21860;SDS011;11095;48.066;8.540;2023-05-28T13:46:14;5.32;;;2.97;;
21860;SDS011;11095;48.066;8.540;2023-05-28T13:48:41;6.55;;;3.08;;
21860;SDS011;11095;48.066;8.540;2023-05-28T13:51:07;5.63;;;3.20;;
21860;SDS011;11095;48.066;8.540;2023-05-28T13:53:33;5.22;;;3.28;;
21860;SDS011;11095;48.066;8.540;2023-05-28T13:55:59;4.78;;;3.10;;
21860;SDS011;11095;48.066;8.540;2023-05-28T13:58:25;5.15;;;3.13;;
21860;SDS011;11095;48.066;8.540;2023-05-28T14:00:50;5.25;;;3.60;;
21860;SDS011;11095;48.066;8.540;2023-05-28T14:03:16;5.93;;;3.58;;
21860;SDS011;11095;48.066;8.540;2023-05-28T14:05:43;5.45;;;3.13;;
21860;SDS011;11095;48.066;8.540;2023-05-28T14:08:10;7.25;;;3.60;;
21860;SDS011;11095;48.066;8.540;2023-05-28T14:10:36;7.93;;;3.50;;
21860;SDS011;11095;48.066;8.540;2023-05-28T14:13:01;5.40;;;3.25;;
21860;SDS011;11095;48.066;8.540;2023-05-28T14:15:27;6.00;;;3.40;;
21860;SDS011;11095;48.066;8.540;2023-05-28T14:17:53;7.63;;;3.85;;
21860;SDS011;11095;48.066;8.540;2023-05-28T14:20:18;5.97;;;3.80;;
21860;SDS011;11095;48.066;8.540;2023-05-28T14:22:44;6.82;;;3.40;;
21860;SDS011;11095;48.066;8.540;2023-05-28T14:25:10;7.32;;;3.63;;
21860;SDS011;11095;48.066;8.540;2023-05-28T14:27:37;5.45;;;3.60;;
21860;SDS011;11095;48.066;8.540;2023-05-28T14:30:03;5.38;;;3.42;;
21860;SDS011;11095;48.066;8.540;2023-05-28T14:32:29;11.35;;;3.97;;
21860;SDS011;11095;48.066;8.540;2023-05-28T14:34:55;5.10;;;3.33;;
21860;SDS011;11095;48.066;8.540;2023-05-28T14:37:21;9.00;;;3.55;;
21860;SDS011;11095;48.066;8.540;2023-05-28T14:39:46;6.82;;;3.90;;
21860;SDS011;11095;48.066;8.540;2023-05-28T14:42:13;6.10;;;3.40;;
21860;SDS011;11095;48.066;8.540;2023-05-28T14:44:39;7.20;;;3.63;;
21860;SDS011;11095;48.066;8.540;2023-05-28T14:47:04;7.95;;;3.55;;
21860;SDS011;11095;48.066;8.540;2023-05-28T14:49:30;5.63;;;3.47;;
21860;SDS011;11095;48.066;8.540;2023-05-28T14:51:56;6.72;;;3.60;;
21860;SDS011;11095;48.066;8.540;2023-05-28T14:54:25;7.35;;;3.67;;
21860;SDS011;11095;48.066;8.540;2023-05-28T14:56:50;6.87;;;3.73;;
21860;SDS011;11095;48.066;8.540;2023-05-28T14:59:18;6.15;;;3.40;;
21860;SDS011;11095;48.066;8.540;2023-05-28T15:01:43;6.97;;;3.30;;
21860;SDS011;11095;48.066;8.540;2023-05-28T15:04:09;6.55;;;3.63;;